Welcome to Des Moines Iowa Weather. I am an independent private personal weather station on the Northwest Side of Des Moines, Iowa. Just East of Windsor Heights and just West of Glendale . This site is also mobile friendly.

There are no active watches, warnings or advisories


Visit our other weather sites:

Historical Data

Weather Station Setup



Weather Underground History page Text

Daily Summary for July 22, 2018 Units:  Metric    English   Both
« Previous Day
Next Day »
Daily Weekly Monthly Yearly Custom
  Current: High: Low: Average:
Temperature: 21.5 °C 29.1 °C 18.3 °C 23.7 °C
Dew Point: 18.3 °C 19.4 °C 16.7 °C 17.8 °C
Humidity: 81 % 90 % 47 % 71 %
Wind Speed: 0 km/h 12.9 km/h 0 km/h 1.1 km/h
Wind Gust: 0 km/h 22.5 km/h - -
Wind:Calm - - SSE
Pressure: 1015.5 hPa 1015.5 hPa 1013.4 hPa -
Precipitation: 0 mm      
Historical Graphs
 
 
Tabular Data for July 22, 2018
Time Temperature Dew Point Pressure Wind Wind Speed Wind Gust Humidity Rainfall Rate (Hourly)
00:04 22.1 °C 18.3 °C 1014.4 hPa Calm   6.4 km/h 79 % 0 mm
00:09 22.1 °C 18.3 °C 1014.4 hPa Calm   3.2 km/h 79 % 0 mm
00:19 21.9 °C 18.3 °C 1014.4 hPa Calm   1.6 km/h 80 % 0 mm
00:24 21.9 °C 18.3 °C 1014.4 hPa Calm   4.8 km/h 80 % 0 mm
00:34 21.8 °C 18.3 °C 1014.4 hPa Calm     80 % 0 mm
00:39 21.7 °C 18.3 °C 1014.4 hPa Calm   3.2 km/h 80 % 0 mm
00:49 21.6 °C 17.8 °C 1014.4 hPa Calm   6.4 km/h 80 % 0 mm
00:54 21.6 °C 17.8 °C 1014.4 hPa Calm   4.8 km/h 80 % 0 mm
01:04 21.4 °C 18.3 °C 1014.4 hPa Calm     81 % 0 mm
01:09 21.4 °C 17.8 °C 1014.4 hPa Calm     81 % 0 mm
01:19 21.2 °C 17.8 °C 1014.4 hPa Calm     81 % 0 mm
01:24 21.2 °C 17.8 °C 1014.8 hPa Calm   1.6 km/h 81 % 0 mm
01:34 21 °C 17.8 °C 1014.4 hPa Calm   3.2 km/h 83 % 0 mm
01:39 20.9 °C 17.8 °C 1014.4 hPa Calm   3.2 km/h 83 % 0 mm
01:49 20.8 °C 17.8 °C 1014.4 hPa Calm   3.2 km/h 83 % 0 mm
01:54 20.7 °C 17.8 °C 1014.1 hPa Calm   4.8 km/h 84 % 0 mm
02:04 20.6 °C 17.8 °C 1014.1 hPa Calm     84 % 0 mm
02:09 20.6 °C 17.8 °C 1014.4 hPa Calm   4.8 km/h 84 % 0 mm
02:19 20.5 °C 17.8 °C 1014.1 hPa Calm     84 % 0 mm
02:24 20.4 °C 17.8 °C 1014.1 hPa Calm   3.2 km/h 85 % 0 mm
02:34 20.4 °C 17.8 °C 1014.1 hPa Calm     85 % 0 mm
02:39 20.3 °C 17.8 °C 1014.1 hPa Calm   3.2 km/h 85 % 0 mm
02:49 20.2 °C 17.8 °C 1014.1 hPa NNW 4.8 km/h 4.8 km/h 85 % 0 mm
02:54 20.1 °C 17.8 °C 1014.1 hPa Calm   4.8 km/h 86 % 0 mm
03:04 19.9 °C 17.8 °C 1014.1 hPa Calm     86 % 0 mm
03:09 19.9 °C 17.8 °C 1014.1 hPa Calm     86 % 0 mm
03:19 19.8 °C 17.2 °C 1014.4 hPa Calm     86 % 0 mm
03:24 19.7 °C 17.2 °C 1014.1 hPa Calm     86 % 0 mm
03:34 19.6 °C 17.2 °C 1014.4 hPa Calm     87 % 0 mm
03:39 19.6 °C 17.2 °C 1014.1 hPa Calm     87 % 0 mm
03:49 19.5 °C 17.2 °C 1014.1 hPa Calm     87 % 0 mm
03:54 19.4 °C 17.2 °C 1014.1 hPa Calm   4.8 km/h 87 % 0 mm
04:04 19.4 °C 17.2 °C 1014.1 hPa Calm   8 km/h 87 % 0 mm
04:09 19.4 °C 17.2 °C 1014.1 hPa Calm   3.2 km/h 87 % 0 mm
04:19 19.3 °C 17.2 °C 1014.1 hPa Calm     88 % 0 mm
04:24 19.3 °C 17.2 °C 1014.1 hPa Calm   4.8 km/h 88 % 0 mm
04:34 19.2 °C 17.2 °C 1014.1 hPa Calm   6.4 km/h 88 % 0 mm
04:39 19.2 °C 17.2 °C 1014.1 hPa Calm   4.8 km/h 88 % 0 mm
04:49 19.1 °C 17.2 °C 1014.1 hPa Calm   8 km/h 88 % 0 mm
04:54 19.1 °C 17.2 °C 1014.1 hPa NNE 1.6 km/h 4.8 km/h 88 % 0 mm
05:04 19 °C 17.2 °C 1014.1 hPa Calm   4.8 km/h 88 % 0 mm
05:09 18.9 °C 17.2 °C 1014.1 hPa Calm     88 % 0 mm
05:19 18.9 °C 16.7 °C 1014.4 hPa Calm   1.6 km/h 88 % 0 mm
05:24 18.8 °C 16.7 °C 1014.4 hPa Calm     88 % 0 mm
05:34 18.7 °C 16.7 °C 1014.4 hPa Calm     88 % 0 mm
05:39 18.7 °C 16.7 °C 1014.8 hPa Calm   4.8 km/h 88 % 0 mm
05:49 18.6 °C 16.7 °C 1014.8 hPa Calm     89 % 0 mm
05:54 18.5 °C 16.7 °C 1014.8 hPa Calm   3.2 km/h 89 % 0 mm
06:04 18.4 °C 16.7 °C 1014.8 hPa Calm   6.4 km/h 89 % 0 mm
06:09 18.4 °C 16.7 °C 1015.1 hPa Calm   6.4 km/h 89 % 0 mm
06:19 18.3 °C 16.7 °C 1015.1 hPa Calm     90 % 0 mm
06:24 18.3 °C 16.7 °C 1015.1 hPa Calm   4.8 km/h 90 % 0 mm
06:39 18.3 °C 16.7 °C 1015.1 hPa WNW 6.4 km/h 8 km/h 90 % 0 mm
06:54 18.4 °C 16.7 °C 1015.5 hPa NW 1.6 km/h 4.8 km/h 90 % 0 mm
07:09 18.6 °C 17.2 °C 1015.1 hPa NNE 3.2 km/h 4.8 km/h 90 % 0 mm
07:24 18.9 °C 17.2 °C 1015.5 hPa Calm   8 km/h 89 % 0 mm
07:35 19.2 °C 17.2 °C 1015.1 hPa Calm   8 km/h 88 % 0 mm
07:40 19.3 °C 17.2 °C 1015.5 hPa Calm   6.4 km/h 88 % 0 mm
07:50 19.5 °C 17.2 °C 1015.5 hPa NE 6.4 km/h 9.7 km/h 87 % 0 mm
07:55 19.6 °C 17.2 °C 1015.1 hPa Calm   8 km/h 86 % 0 mm
08:05 19.7 °C 17.2 °C 1015.1 hPa Calm   9.7 km/h 85 % 0 mm
08:10 19.8 °C 17.2 °C 1015.1 hPa Calm   8 km/h 85 % 0 mm
08:25 19.9 °C 17.2 °C 1015.1 hPa Calm   6.4 km/h 85 % 0 mm
08:35 20.1 °C 17.2 °C 1015.1 hPa ENE 3.2 km/h 11.3 km/h 84 % 0 mm
08:40 20.2 °C 17.2 °C 1015.1 hPa Calm   8 km/h 83 % 0 mm
08:51 20.4 °C 17.2 °C 1015.1 hPa Calm   9.7 km/h 83 % 0 mm
08:56 20.5 °C 17.2 °C 1015.1 hPa Calm   8 km/h 82 % 0 mm
09:05 20.7 °C 17.8 °C 1014.8 hPa Calm   9.7 km/h 83 % 0 mm
09:12 20.9 °C 17.8 °C 1014.8 hPa NE 3.2 km/h 6.4 km/h 82 % 0 mm
09:20 21.1 °C 17.8 °C 1014.8 hPa ENE 4.8 km/h 9.7 km/h 81 % 0 mm
09:27 21.3 °C 17.8 °C 1014.8 hPa ENE 4.8 km/h 9.7 km/h 80 % 0 mm
09:35 21.5 °C 17.8 °C 1014.8 hPa Calm   8 km/h 79 % 0 mm
09:42 21.7 °C 17.8 °C 1014.8 hPa ENE 4.8 km/h 6.4 km/h 78 % 0 mm
09:50 21.8 °C 17.8 °C 1014.4 hPa East 4.8 km/h 11.3 km/h 78 % 0 mm
09:57 22 °C 17.8 °C 1014.4 hPa Calm   8 km/h 77 % 0 mm
10:05 22.2 °C 17.8 °C 1014.4 hPa NNW 4.8 km/h 6.4 km/h 77 % 0 mm
10:12 22.4 °C 17.8 °C 1014.4 hPa Calm   12.9 km/h 75 % 0 mm
10:20 22.7 °C 17.8 °C 1014.1 hPa Calm   14.5 km/h 74 % 0 mm
10:27 22.8 °C 18.3 °C 1014.4 hPa NE 4.8 km/h 8 km/h 75 % 0 mm
10:35 23.1 °C 18.3 °C 1014.1 hPa Calm   12.9 km/h 74 % 0 mm
10:42 23.4 °C 18.3 °C 1014.1 hPa Calm   12.9 km/h 72 % 0 mm
10:50 23.7 °C 18.3 °C 1014.1 hPa Calm   6.4 km/h 73 % 0 mm
10:58 24.1 °C 18.3 °C 1014.1 hPa NNE 3.2 km/h 9.7 km/h 70 % 0 mm
11:07 24.6 °C 18.3 °C 1014.1 hPa Calm   8 km/h 69 % 0 mm
11:13 24.8 °C 18.9 °C 1014.1 hPa NNE 1.6 km/h 8 km/h 70 % 0 mm
11:20 25.2 °C 18.3 °C 1014.4 hPa NNW 4.8 km/h 9.7 km/h 67 % 0 mm
11:28 25.4 °C 18.3 °C 1014.4 hPa Calm   11.3 km/h 66 % 0 mm
11:35 25.8 °C 18.3 °C 1014.4 hPa NE 3.2 km/h 16.1 km/h 63 % 0 mm
11:43 25.9 °C 18.3 °C 1014.4 hPa NNW 6.4 km/h 6.4 km/h 63 % 0 mm
11:50 26.1 °C 18.9 °C 1014.4 hPa Calm   12.9 km/h 64 % 0 mm
11:58 26.1 °C 17.8 °C 1014.1 hPa Calm   9.7 km/h 61 % 0 mm
12:05 26.1 °C 18.3 °C 1014.1 hPa NNW 8 km/h 9.7 km/h 62 % 0 mm
12:13 26.2 °C 18.9 °C 1014.1 hPa NW 4.8 km/h 8 km/h 64 % 0 mm
12:20 26.3 °C 18.3 °C 1014.1 hPa Calm   11.3 km/h 62 % 0 mm
12:28 26.3 °C 18.3 °C 1013.8 hPa Calm   6.4 km/h 62 % 0 mm
12:35 26.4 °C 18.3 °C 1014.1 hPa Calm   12.9 km/h 62 % 0 mm
12:43 26.4 °C 18.9 °C 1014.1 hPa Calm   3.2 km/h 63 % 0 mm
12:50 26.6 °C 18.3 °C 1014.1 hPa ENE 6.4 km/h 6.4 km/h 61 % 0 mm
12:58 26.8 °C 17.8 °C 1014.1 hPa East 1.6 km/h 8 km/h 58 % 0 mm
13:06 26.9 °C 17.8 °C 1014.4 hPa NNE 12.9 km/h 12.9 km/h 57 % 0 mm
13:12 27.2 °C 17.8 °C 1014.1 hPa NE 4.8 km/h 12.9 km/h 56 % 0 mm
13:21 27.5 °C 17.8 °C 1014.1 hPa Calm   12.9 km/h 56 % 0 mm
13:27 27.7 °C 18.3 °C 1013.8 hPa Calm   11.3 km/h 56 % 0 mm
13:36 27.8 °C 17.8 °C 1013.8 hPa Calm   16.1 km/h 55 % 0 mm
13:42 28 °C 17.8 °C 1013.8 hPa Calm   12.9 km/h 54 % 0 mm
13:51 28.1 °C 17.8 °C 1013.8 hPa NNE 1.6 km/h 17.7 km/h 54 % 0 mm
13:57 28.1 °C 17.2 °C 1013.8 hPa NW 6.4 km/h 11.3 km/h 52 % 0 mm
14:06 27.9 °C 16.7 °C 1014.1 hPa Calm   12.9 km/h 50 % 0 mm
14:13 28.1 °C 17.8 °C 1014.1 hPa NW 1.6 km/h 8 km/h 53 % 0 mm
14:21 28.2 °C 16.7 °C 1014.1 hPa Calm   16.1 km/h 50 % 0 mm
14:28 28.2 °C 17.2 °C 1014.1 hPa Calm   14.5 km/h 51 % 0 mm
14:36 28.3 °C 17.2 °C 1014.1 hPa Calm   16.1 km/h 52 % 0 mm
14:43 28.3 °C 16.7 °C 1013.8 hPa Calm   14.5 km/h 50 % 0 mm
14:51 28.6 °C 17.2 °C 1013.8 hPa Calm   12.9 km/h 50 % 0 mm
14:58 28.7 °C 17.8 °C 1013.8 hPa Calm   12.9 km/h 52 % 0 mm
15:06 28.6 °C 17.2 °C 1013.8 hPa NNE 1.6 km/h 22.5 km/h 50 % 0 mm
15:13 28.6 °C 17.2 °C 1013.8 hPa ESE 3.2 km/h 11.3 km/h 51 % 0 mm
15:21 28.7 °C 16.7 °C 1013.8 hPa Calm   16.1 km/h 48 % 0 mm
15:28 28.8 °C 17.2 °C 1013.8 hPa ENE 8 km/h 9.7 km/h 49 % 0 mm
15:36 28.8 °C 16.7 °C 1013.8 hPa NNE 8 km/h 14.5 km/h 48 % 0 mm
15:43 28.9 °C 16.7 °C 1013.8 hPa NE 3.2 km/h 12.9 km/h 48 % 0 mm
15:51 29.1 °C 18.3 °C 1013.8 hPa Calm   6.4 km/h 52 % 0 mm
15:58 29 °C 17.2 °C 1013.8 hPa NW 6.4 km/h 11.3 km/h 49 % 0 mm
16:06 29.1 °C 17.8 °C 1013.8 hPa Calm   14.5 km/h 50 % 0 mm
16:13 29.1 °C 16.7 °C 1013.8 hPa ENE 3.2 km/h 14.5 km/h 47 % 0 mm
16:21 29.1 °C 17.2 °C 1013.8 hPa Calm   14.5 km/h 49 % 0 mm
16:28 29.1 °C 17.2 °C 1013.8 hPa NE 6.4 km/h 12.9 km/h 49 % 0 mm
16:36 29 °C 16.7 °C 1013.8 hPa Calm   12.9 km/h 47 % 0 mm
16:43 28.9 °C 16.7 °C 1013.8 hPa ENE 3.2 km/h 9.7 km/h 48 % 0 mm
16:51 28.8 °C 16.7 °C 1013.4 hPa Calm   12.9 km/h 48 % 0 mm
16:58 28.8 °C 17.2 °C 1013.4 hPa Calm   14.5 km/h 49 % 0 mm
17:06 28.8 °C 17.2 °C 1013.4 hPa NNW 3.2 km/h 14.5 km/h 50 % 0 mm
17:13 28.7 °C 17.2 °C 1013.4 hPa Calm   16.1 km/h 50 % 0 mm
17:21 28.7 °C 17.8 °C 1013.4 hPa North 12.9 km/h 12.9 km/h 51 % 0 mm
17:28 28.8 °C 17.8 °C 1013.4 hPa NW 3.2 km/h 12.9 km/h 52 % 0 mm
17:36 28.8 °C 17.8 °C 1013.4 hPa Calm   17.7 km/h 52 % 0 mm
17:43 28.7 °C 18.9 °C 1013.4 hPa North 3.2 km/h 9.7 km/h 55 % 0 mm
17:51 28.6 °C 18.3 °C 1013.4 hPa Calm   16.1 km/h 54 % 0 mm
17:58 28.3 °C 17.8 °C 1013.4 hPa WNW 3.2 km/h 9.7 km/h 53 % 0 mm
18:06 28 °C 17.8 °C 1013.4 hPa Calm   14.5 km/h 54 % 0 mm
18:13 27.8 °C 18.3 °C 1013.4 hPa Calm   9.7 km/h 57 % 0 mm
18:21 27.6 °C 17.8 °C 1013.4 hPa NE 1.6 km/h 9.7 km/h 55 % 0 mm
18:28 27.5 °C 18.3 °C 1013.4 hPa NE 1.6 km/h 9.7 km/h 57 % 0 mm
18:36 27.4 °C 19.4 °C 1013.4 hPa Calm   12.9 km/h 62 % 0 mm
18:43 27.2 °C 19.4 °C 1013.8 hPa Calm   8 km/h 62 % 0 mm
18:51 26.8 °C 19.4 °C 1013.8 hPa Calm   8 km/h 63 % 0 mm
18:58 26.4 °C 18.9 °C 1013.8 hPa Calm   12.9 km/h 63 % 0 mm
19:06 26.1 °C 18.9 °C 1013.8 hPa Calm   14.5 km/h 64 % 0 mm
19:13 25.9 °C 18.9 °C 1013.8 hPa NNE 4.8 km/h 9.7 km/h 65 % 0 mm
19:21 25.8 °C 18.9 °C 1013.8 hPa Calm   9.7 km/h 65 % 0 mm
19:28 25.7 °C 18.9 °C 1013.8 hPa Calm   4.8 km/h 66 % 0 mm
19:36 25.6 °C 18.9 °C 1013.8 hPa Calm   6.4 km/h 67 % 0 mm
19:43 25.4 °C 18.9 °C 1013.8 hPa Calm   6.4 km/h 66 % 0 mm
19:51 25.3 °C 18.3 °C 1013.8 hPa Calm   8 km/h 66 % 0 mm
19:58 25.2 °C 18.3 °C 1013.8 hPa Calm   6.4 km/h 66 % 0 mm
20:06 25.1 °C 18.3 °C 1013.8 hPa Calm   4.8 km/h 67 % 0 mm
20:13 25 °C 18.3 °C 1013.4 hPa Calm   3.2 km/h 67 % 0 mm
20:21 24.8 °C 18.3 °C 1013.4 hPa Calm     68 % 0 mm
20:28 24.7 °C 18.3 °C 1013.4 hPa Calm   4.8 km/h 68 % 0 mm
20:36 24.6 °C 18.3 °C 1013.4 hPa Calm   1.6 km/h 69 % 0 mm
20:43 24.4 °C 18.9 °C 1013.8 hPa Calm     70 % 0 mm
20:51 24.2 °C 18.3 °C 1013.8 hPa Calm   1.6 km/h 70 % 0 mm
20:58 24.1 °C 18.3 °C 1013.8 hPa Calm     71 % 0 mm
21:06 23.9 °C 18.9 °C 1014.1 hPa Calm     72 % 0 mm
21:13 23.8 °C 18.3 °C 1014.1 hPa Calm   1.6 km/h 72 % 0 mm
21:21 23.6 °C 18.3 °C 1014.1 hPa Calm     73 % 0 mm
21:28 23.5 °C 18.3 °C 1014.1 hPa Calm     73 % 0 mm
21:36 23.3 °C 18.3 °C 1014.1 hPa Calm     74 % 0 mm
21:43 23.2 °C 18.3 °C 1014.4 hPa Calm     74 % 0 mm
21:51 23.1 °C 18.3 °C 1014.4 hPa Calm     75 % 0 mm
22:01 22.8 °C 18.3 °C 1014.4 hPa Calm     76 % 0 mm
22:06 22.7 °C 18.3 °C 1014.8 hPa Calm     76 % 0 mm
22:19 22.4 °C 18.3 °C 1014.8 hPa Calm     77 % 0 mm
22:21 22.4 °C 18.3 °C 1014.8 hPa Calm     77 % 0 mm
22:37 22.1 °C 18.3 °C 1014.8 hPa Calm     78 % 0 mm
22:52 21.8 °C 17.8 °C 1015.1 hPa Calm     79 % 0 mm
23:07 21.5 °C 18.3 °C 1015.5 hPa Calm     81 % 0 mm
Des Moines Weather and Climate
Compliments of Weather Underground - 3.5 mb

Script developed by  Jim McMurry - jmcmurry@mwt.net Adapted for the template by  Wim van der Kuil - Leuven-Template.eu

You find our weather info also at:

Weather Underground

Equipment we use:

Weather-station
Davis VP2 Plus

Weather-program
Davis Weatherlink.Com

Weather-server
iMac (Retina 4K, 21.5-inch, Late 2015)

Provider
Hostmonster.com

Davis VP2 Plus

Davis Weatherlink.Com

iMac (Retina 4K, 21.5-inch, Late 2015)

Hostmonster.com